Terminal Aerodrome Forecast
Issued by NWS

Home | Current Version | Previous Version | Text Only | Print | Product List | Glossary On
Versions: 1 2 3 4 5 6 7 8 9 10 11 12 13 14 15 16 17 18 19 20 21 22 23 24 25 26
000
FTUS41 KGYX 242320
TAFAUG
TAF
KAUG 242320Z 2500/2524 17006KT P6SM SCT100 BKN200
     FM250900 00000KT 2SM BR SCT250
     FM251300 10004KT P6SM SCT100 BKN250
     FM251700 12010G17KT 6SM BR OVC050
     FM252300 12012G19KT 5SM -RA BR OVC015=

USA.gov is the U.S. government's official web portal to all federal, state and local government web resources and services.